Morganton, Georgia
Current Conditions -  °F | °C
As of 5:55 PM on Thursday 20 Nov 2014 (Local Time) from KRHP Reporting Station
Clear Clear  
Wind Chill: 40°   Ceiling: Unl
Heat Index: 40°   Visibility: 10mi
Dew Point: 29°   Wind: 3mph
Humidity: 67%   Direction: 350°N
Pressure: 30.16"   Gusts: NA
Location:  34.87°N, 84.25°W
Report Text: KRHP 202255Z AUTO 35003KT 10SM CLR 04/M01 A3016 RMK AO2 T00421015
Loading
Personal Weather Stations






























Interactive Weather Map New forecast layout! Learn more

10-Day Weather Forecast

Advertisements
Track Severe Weather on mobile